Terminal Aerodrome Forecast
Issued by NWS

Home | Current Version | Previous Version | Text Only | Print | Product List | Glossary On
Versions: 1 2 3 4 5 6 7 8 9 10 11 12 13 14 15 16 17 18 19 20 21 22
000
FTUS45 KTFX 180100 CCA
TAFGTF
TAF COR
KGTF 180149Z 1802/1824 18011KT P6SM VCSH SCT050 OVC080
      TEMPO 1802/1806 -SHRA BKN040
     FM180600 21011G21KT P6SM VCSH SCT030 OVC050
      TEMPO 1806/1810 -SHRA BKN030
     FM181400 23017G28KT P6SM SCT060 BKN090
     FM181800 24025G40KT P6SM SCT080=

USA.gov is the U.S. government's official web portal to all federal, state and local government web resources and services.